Time;durP1;ratioP1;P1;durP2;ratioP2;P2;SDS_P1;SDS_P2;PMS_P1;PMS_P2;Temp;Humidity;BMP_temperature;BMP_pressure;BME280_temperature;BME280_humidity;BME280_pressure;Samples;Min_cycle;Max_cycle;Signal;HPM_P1;HPM_P2
2023/04/25 00:00:06;;;;;;;16.95;9.65;;;;;;;10.49;87.90;99685.26;1724014;83;21144;-80
2023/04/25 00:03:12;;;;;;;23.22;10.28;;;;;;;10.40;88.17;99683.67;1727027;81;21207;-88
2023/04/25 00:06:17;;;;;;;17.30;10.50;;;;;;;10.30;88.85;99672.15;1726573;81;21148;-88
2023/04/25 00:09:22;;;;;;;19.70;10.58;;;;;;;10.26;89.58;99676.81;1723382;83;21694;-81
2023/04/25 00:12:33;;;;;;;20.72;10.50;;;;;;;10.22;90.10;99672.24;1723648;83;21200;-80
2023/04/25 00:15:35;;;;;;;26.55;11.28;;;;;;;10.15;90.56;99669.40;1724013;83;21713;-88
2023/04/25 00:18:43;;;;;;;15.95;10.25;;;;;;;10.12;90.98;99661.59;1708751;84;21232;-80
2023/04/25 00:21:50;;;;;;;26.68;10.65;;;;;;;10.06;91.35;99663.70;1710031;83;21160;-89
2023/04/25 00:24:57;;;;;;;20.60;9.48;;;;;;;10.05;91.70;99659.28;1687151;85;21221;-89
2023/04/25 00:28:03;;;;;;;18.95;10.58;;;;;;;10.04;91.87;99656.75;1665734;84;21777;-79
2023/04/25 00:31:08;;;;;;;18.23;11.30;;;;;;;10.04;91.79;99652.65;1669829;86;21226;-89
2023/04/25 00:34:17;;;;;;;26.40;13.30;;;;;;;9.98;91.57;99649.64;1670199;86;21196;-82
2023/04/25 00:37:23;;;;;;;17.12;9.55;;;;;;;9.94;91.85;99651.05;1666473;84;21205;-89
2023/04/25 00:40:28;;;;;;;15.90;8.63;;;;;;;9.88;91.99;99646.83;1667543;86;21228;-80
2023/04/25 00:43:36;;;;;;;18.45;9.45;;;;;;;9.86;92.04;99641.56;1668718;86;21197;-90
2023/04/25 00:46:41;;;;;;;15.60;8.45;;;;;;;9.81;92.21;99644.53;1652551;86;21194;-80
2023/04/25 00:49:46;;;;;;;17.00;9.30;;;;;;;9.75;92.81;99640.68;1670901;86;21221;-90
2023/04/25 00:52:53;;;;;;;19.45;8.60;;;;;;;9.71;93.30;99639.35;1668787;86;21206;-89
2023/04/25 00:56:04;;;;;;;14.58;8.63;;;;;;;9.66;93.93;99634.45;1644830;86;21789;-89
2023/04/25 00:59:07;;;;;;;17.90;9.33;;;;;;;9.61;94.19;99639.62;1671685;83;21150;-88
2023/04/25 01:02:13;;;;;;;16.67;9.35;;;;;;;9.56;94.54;99635.77;1671440;83;21197;-89
2023/04/25 01:05:20;;;;;;;15.83;10.10;;;;;;;9.55;94.82;99636.77;1672083;84;21218;-88
2023/04/25 01:08:27;;;;;;;90.25;11.85;;;;;;;9.55;95.56;99642.23;1669121;84;21166;-89
2023/04/25 01:11:33;;;;;;;20.62;9.75;;;;;;;9.53;96.02;99638.86;1669998;85;21190;-80
2023/04/25 01:14:38;;;;;;;18.15;9.18;;;;;;;9.58;96.73;99637.25;1659721;86;21642;-89
2023/04/25 01:17:43;;;;;;;17.42;8.98;;;;;;;9.63;97.25;99640.80;1645418;86;21149;-80
2023/04/25 01:20:49;;;;;;;16.15;7.95;;;;;;;9.59;97.54;99633.48;1724524;83;21167;-89
2023/04/25 01:23:55;;;;;;;17.87;8.30;;;;;;;9.53;98.36;99633.39;1725196;83;21164;-89
2023/04/25 01:27:01;;;;;;;15.30;8.10;;;;;;;9.53;99.08;99634.23;1725909;83;21183;-89
2023/04/25 01:30:05;;;;;;;18.65;8.68;;;;;;;9.48;100.00;99636.16;1706480;83;21199;-80
2023/04/25 01:33:11;;;;;;;19.80;9.10;;;;;;;9.56;100.00;99630.30;1723389;83;21167;-81
2023/04/25 01:36:16;;;;;;;14.75;9.20;;;;;;;9.56;100.00;99627.05;1725529;82;21184;-89
2023/04/25 01:39:21;;;;;;;16.52;8.05;;;;;;;9.55;100.00;99632.68;1726886;83;21207;-89
2023/04/25 01:42:27;;;;;;;15.75;8.83;;;;;;;9.55;100.00;99629.95;1722608;83;21183;-81
2023/04/25 01:45:33;;;;;;;15.78;8.05;;;;;;;9.55;99.69;99625.86;1723758;83;21167;-80
2023/04/25 01:48:33;;;;;;;19.20;8.13;;;;;;;9.56;99.30;99618.86;1727720;81;21399;-88
2023/04/25 01:51:32;;;;;;;13.43;8.48;;;;;;;9.63;98.89;99621.16;1728926;80;21152;-88
2023/04/25 01:54:37;;;;;;;15.65;7.40;;;;;;;9.67;98.95;99617.55;1726397;83;21148;-81
2023/04/25 01:57:42;;;;;;;15.05;8.20;;;;;;;9.73;98.73;99609.95;1725671;82;21183;-89
2023/04/25 02:00:51;;;;;;;12.60;7.65;;;;;;;9.70;98.75;99605.73;1723020;83;21720;-90
2023/04/25 02:04:00;;;;;;;18.45;7.33;;;;;;;9.68;98.84;99600.13;1726025;83;21188;-90
2023/04/25 02:07:07;;;;;;;13.08;7.20;;;;;;;9.67;98.36;99602.53;1726505;82;21190;-80
2023/04/25 02:10:15;;;;;;;12.10;6.87;;;;;;;9.63;98.24;99599.31;1723718;83;21171;-80
2023/04/25 02:13:25;;;;;;;12.58;7.53;;;;;;;9.62;98.53;99603.09;1721946;82;21175;-80
2023/04/25 02:16:43;;;;;;;20.23;7.58;;;;;;;9.61;98.47;99598.67;1726793;82;21564;-81
2023/04/25 02:19:50;;;;;;;17.00;8.88;;;;;;;9.64;98.26;99595.55;1723981;83;21704;-78
2023/04/25 02:22:55;;;;;;;12.30;8.70;;;;;;;9.60;98.38;99591.52;1723809;83;21172;-89
2023/04/25 02:26:01;;;;;;;21.42;9.28;;;;;;;9.61;98.56;99585.54;1725636;83;21139;-89
2023/04/25 02:29:07;;;;;;;19.98;8.85;;;;;;;9.56;98.69;99586.09;1726847;83;21191;-89
2023/04/25 02:32:12;;;;;;;13.78;8.10;;;;;;;9.62;98.79;99584.50;1724157;83;21171;-89
2023/04/25 02:35:19;;;;;;;18.77;8.28;;;;;;;9.61;98.83;99586.38;1726145;83;21148;-89
2023/04/25 02:38:25;;;;;;;17.55;8.98;;;;;;;9.64;98.63;99582.41;1721781;83;21187;-88
2023/04/25 02:41:29;;;;;;;13.00;8.55;;;;;;;9.62;98.32;99588.07;1726772;83;21203;-80
2023/04/25 02:44:35;;;;;;;22.55;7.33;;;;;;;9.62;98.42;99589.95;1724958;83;21163;-88
2023/04/25 02:47:41;;;;;;;22.45;7.60;;;;;;;9.67;98.89;99593.81;1726060;83;21207;-80
2023/04/25 02:50:46;;;;;;;44.25;7.30;;;;;;;9.71;99.85;99584.73;1726841;83;21716;-80
2023/04/25 02:53:52;;;;;;;26.07;8.08;;;;;;;9.73;100.00;99588.11;1726745;83;21744;-89
2023/04/25 02:57:00;;;;;;;24.05;7.87;;;;;;;9.79;100.00;99588.74;1725664;81;21191;-81
2023/04/25 03:00:05;;;;;;;44.38;8.28;;;;;;;9.84;100.00;99578.62;1723187;83;21136;-89
2023/04/25 03:03:11;;;;;;;9.88;5.90;;;;;;;9.89;100.00;99586.56;1726887;81;21706;-90
2023/04/25 03:06:17;;;;;;;9.40;6.67;;;;;;;9.88;100.00;99588.98;1725820;83;21758;-79
2023/04/25 03:09:23;;;;;;;10.58;5.55;;;;;;;9.94;100.00;99588.21;1721378;83;21167;-80
2023/04/25 03:12:29;;;;;;;13.45;6.80;;;;;;;10.01;100.00;99588.28;1725075;83;21199;-90
2023/04/25 03:15:35;;;;;;;8.00;6.00;;;;;;;10.13;100.00;99584.56;1722245;82;21180;-81
2023/04/25 03:18:41;;;;;;;12.37;7.05;;;;;;;10.20;100.00;99584.11;1710920;84;21754;-80
2023/04/25 03:21:48;;;;;;;9.03;6.62;;;;;;;10.28;100.00;99578.57;1707836;83;21243;-89
2023/04/25 03:24:55;;;;;;;10.93;6.62;;;;;;;10.30;100.00;99577.84;1710356;84;21168;-89
2023/04/25 03:28:01;;;;;;;10.88;7.33;;;;;;;10.42;100.00;99591.35;1711667;84;21184;-80
2023/04/25 03:31:09;;;;;;;17.02;7.20;;;;;;;10.43;100.00;99579.38;1712261;84;21558;-81
2023/04/25 03:34:14;;;;;;;15.35;6.92;;;;;;;10.58;100.00;99583.94;1637568;87;21740;-90
2023/04/25 03:37:20;;;;;;;12.88;7.03;;;;;;;10.67;100.00;99582.26;1663736;85;21173;-81
2023/04/25 03:40:26;;;;;;;17.10;7.15;;;;;;;10.79;100.00;99588.59;1661246;86;21222;-81
2023/04/25 03:43:35;;;;;;;13.43;7.20;;;;;;;10.81;100.00;99581.87;1663847;85;21198;-81
2023/04/25 03:46:41;;;;;;;11.05;7.08;;;;;;;10.89;100.00;99584.48;1661715;85;21260;-80
2023/04/25 03:49:49;;;;;;;10.32;7.17;;;;;;;10.84;100.00;99584.23;1665199;86;21178;-80
2023/04/25 03:52:55;;;;;;;13.80;7.15;;;;;;;10.93;100.00;99583.58;1664572;85;21261;-81
2023/04/25 03:56:02;;;;;;;13.43;8.93;;;;;;;10.98;100.00;99579.73;1660027;86;21173;-89
2023/04/25 03:59:08;;;;;;;15.28;9.03;;;;;;;11.00;100.00;99582.58;1664969;86;21178;-88
2023/04/25 04:02:14;;;;;;;27.32;8.75;;;;;;;11.10;100.00;99585.50;1663885;85;21742;-81
2023/04/25 04:05:19;;;;;;;15.58;7.87;;;;;;;11.22;100.00;99583.93;1641603;86;21750;-87
2023/04/25 04:08:26;;;;;;;14.30;6.62;;;;;;;11.29;100.00;99587.55;1664173;85;21198;-81
2023/04/25 04:11:33;;;;;;;10.80;6.97;;;;;;;11.35;100.00;99584.05;1664197;85;21165;-81
2023/04/25 04:14:38;;;;;;;11.93;6.65;;;;;;;11.46;100.00;99582.11;1662350;86;21166;-81
2023/04/25 04:17:37;;;;;;;12.25;6.08;;;;;;;11.51;100.00;99578.25;1661353;85;21204;-81
2023/04/25 04:20:30;;;;;;;14.35;6.05;;;;;;;11.52;100.00;99574.98;1663867;86;21214;-89
2023/04/25 04:23:17;;;;;;;10.88;7.40;;;;;;;11.56;100.00;99572.17;1664334;85;21172;-90
2023/04/25 04:26:26;;;;;;;9.17;6.90;;;;;;;11.64;100.00;99574.76;1663269;85;21185;-90
2023/04/25 04:29:52;;;;;;;16.12;7.28;;;;;;;11.76;100.00;99570.92;1665028;86;21230;-89
2023/04/25 04:33:00;;;;;;;;;;;;;;;11.85;100.00;99568.89;1666239;85;21230;-81
2023/04/25 04:36:07;;;;;;;10.53;4.85;;;;;;;11.93;100.00;99570.11;1668279;85;20650;-89
2023/04/25 04:39:14;;;;;;;7.87;5.72;;;;;;;11.98;100.00;99572.55;1693987;84;21229;-84
2023/04/25 04:42:24;;;;;;;9.18;5.42;;;;;;;11.98;100.00;99572.55;1648438;86;21196;-89
2023/04/25 04:45:42;;;;;;;10.93;5.30;;;;;;;12.06;100.00;99571.55;1667431;84;21683;-81
2023/04/25 04:49:05;;;;;;;14.03;6.10;;;;;;;12.14;100.00;99569.13;1692257;84;22112;-89
2023/04/25 04:52:15;;;;;;;19.62;6.42;;;;;;;12.17;100.00;99568.20;1690799;83;21533;-81
2023/04/25 04:55:40;;;;;;;12.93;6.92;;;;;;;12.24;100.00;99573.73;1654720;86;21153;-81
2023/04/25 04:58:55;;;;;;;12.80;5.90;;;;;;;12.33;100.00;99564.28;1665000;84;21199;-89
2023/04/25 05:02:11;;;;;;;11.43;5.83;;;;;;;12.50;100.00;99571.06;1692867;83;21155;-88
2023/04/25 05:05:09;;;;;;;11.35;5.83;;;;;;;12.63;100.00;99565.30;1693587;83;21246;-88
2023/04/25 05:08:13;;;;;;;11.55;6.30;;;;;;;12.72;100.00;99564.06;1692808;83;21718;-81
2023/04/25 05:11:12;;;;;;;6.92;5.10;;;;;;;12.83;100.00;99566.70;1644483;85;21152;-81
2023/04/25 05:14:17;;;;;;;10.32;5.33;;;;;;;12.92;100.00;99562.17;1692966;83;21165;-81
2023/04/25 05:17:15;;;;;;;8.48;5.42;;;;;;;13.01;100.00;99565.56;1690765;83;21166;-81
2023/04/25 05:20:22;;;;;;;8.15;4.70;;;;;;;13.07;100.00;99565.25;1694367;83;21218;-81
2023/04/25 05:23:31;;;;;;;10.23;5.70;;;;;;;13.22;100.00;99568.66;1655993;85;21173;-80
2023/04/25 05:26:55;;;;;;;10.25;4.60;;;;;;;13.30;100.00;99566.55;1633115;87;21932;-81
2023/04/25 05:30:13;;;;;;;10.35;5.47;;;;;;;13.45;100.00;99566.31;1630699;86;21181;-81
2023/04/25 05:33:21;;;;;;;10.05;5.22;;;;;;;13.59;99.91;99566.30;1693592;83;21239;-81
2023/04/25 05:36:27;;;;;;;9.65;5.50;;;;;;;13.71;99.43;99564.59;1700446;83;21203;-81
2023/04/25 05:39:33;;;;;;;7.17;5.03;;;;;;;13.91;98.79;99565.92;1700752;84;21775;-81
2023/04/25 05:42:43;;;;;;;12.15;5.28;;;;;;;14.10;97.93;99564.16;1665573;84;21870;-81
2023/04/25 05:45:51;;;;;;;8.40;5.40;;;;;;;14.26;96.89;99560.41;1700195;83;21147;-81
2023/04/25 05:49:15;;;;;;;6.60;4.58;;;;;;;14.44;96.20;99561.03;1695047;84;21202;-82
2023/04/25 05:52:22;;;;;;;12.73;5.20;;;;;;;14.54;95.13;99560.08;1700535;83;21183;-81
2023/04/25 05:55:30;;;;;;;13.08;5.30;;;;;;;14.72;93.90;99557.94;1666112;84;21812;-81
2023/04/25 05:58:37;;;;;;;12.50;5.00;;;;;;;14.99;92.65;99552.27;1629935;87;21183;-81
2023/04/25 06:01:43;;;;;;;9.05;4.78;;;;;;;15.22;91.97;99554.41;1628786;87;21520;-81
2023/04/25 06:04:48;;;;;;;13.00;5.05;;;;;;;15.45;90.84;99549.66;1679604;85;21189;-89
2023/04/25 06:07:55;;;;;;;13.98;4.80;;;;;;;15.71;90.12;99545.80;1680120;84;21189;-88
2023/04/25 06:11:02;;;;;;;11.03;5.37;;;;;;;15.66;89.40;99540.14;1660544;84;21806;-87
2023/04/25 06:14:07;;;;;;;9.00;4.90;;;;;;;15.90;88.36;99547.50;1680641;84;21212;-87
2023/04/25 06:17:13;;;;;;;10.43;5.25;;;;;;;16.10;86.72;99544.53;1680669;84;21160;-88
2023/04/25 06:20:14;;;;;;;7.85;4.40;;;;;;;16.33;85.73;99538.30;1680316;83;21207;-88
2023/04/25 06:23:21;;;;;;;18.40;5.37;;;;;;;16.52;83.76;99541.33;1679757;83;21192;-88
2023/04/25 06:26:29;;;;;;;14.65;5.15;;;;;;;16.75;80.96;99542.50;1682343;83;21215;-88
2023/04/25 06:29:35;;;;;;;16.80;5.80;;;;;;;17.01;78.63;99544.86;1679673;83;21208;-88
2023/04/25 06:32:40;;;;;;;10.30;5.28;;;;;;;17.03;76.15;99549.63;1678783;84;21184;-87
2023/04/25 06:35:46;;;;;;;15.43;5.10;;;;;;;16.80;75.71;99546.80;1672461;84;21276;-82
2023/04/25 06:38:53;;;;;;;8.90;4.42;;;;;;;17.04;75.15;99540.80;1636932;87;21257;-81
2023/04/25 06:41:58;;;;;;;17.23;4.50;;;;;;;17.27;74.24;99542.77;1635661;86;21780;-82
2023/04/25 06:45:06;;;;;;;12.40;5.28;;;;;;;17.43;73.96;99543.42;1620592;88;21237;-82
2023/04/25 06:48:11;;;;;;;14.43;5.40;;;;;;;17.51;73.00;99540.85;1618891;87;21839;-82
2023/04/25 06:51:17;;;;;;;13.35;5.78;;;;;;;17.59;72.07;99540.47;1634379;87;21274;-81
2023/04/25 06:54:24;;;;;;;17.65;5.62;;;;;;;17.64;71.59;99548.88;1607874;87;21227;-81
2023/04/25 06:57:34;;;;;;;16.90;5.05;;;;;;;17.76;70.55;99551.14;1620338;87;21240;-81
2023/04/25 07:00:44;;;;;;;14.00;5.25;;;;;;;17.82;69.41;99548.78;1595163;88;21281;-82
2023/04/25 07:03:52;;;;;;;21.57;5.37;;;;;;;17.81;68.75;99548.48;1614489;87;21867;-81
2023/04/25 07:07:02;;;;;;;11.63;4.75;;;;;;;17.72;68.73;99549.07;1615205;87;21226;-81
2023/04/25 07:10:09;;;;;;;11.85;5.35;;;;;;;17.72;68.70;99551.84;1629705;87;21855;-81
2023/04/25 07:13:16;;;;;;;10.90;4.95;;;;;;;17.59;68.22;99550.98;1616906;87;21259;-86
2023/04/25 07:16:21;;;;;;;17.20;5.30;;;;;;;17.50;68.56;99557.98;1616299;85;21663;-89
2023/04/25 07:19:29;;;;;;;18.92;5.87;;;;;;;17.46;69.01;99554.02;1620929;88;21616;-88
2023/04/25 07:22:35;;;;;;;9.58;5.35;;;;;;;17.33;68.92;99550.09;1633741;86;21900;-87
2023/04/25 07:25:40;;;;;;;19.70;5.20;;;;;;;17.31;69.14;99553.10;1617479;87;21771;-89
2023/04/25 07:28:50;;;;;;;10.50;5.05;;;;;;;17.36;69.38;99555.12;1613865;88;21857;-82
2023/04/25 07:31:55;;;;;;;11.57;5.15;;;;;;;17.36;69.17;99547.70;1623463;87;21278;-88
2023/04/25 07:35:01;;;;;;;15.53;5.35;;;;;;;17.35;68.73;99554.83;1620018;87;21190;-88
2023/04/25 07:38:07;;;;;;;10.18;4.70;;;;;;;17.38;68.71;99555.20;1643911;85;21266;-88
2023/04/25 07:41:14;;;;;;;11.22;5.15;;;;;;;17.44;68.66;99550.63;1644289;87;21235;-88
2023/04/25 07:44:19;;;;;;;11.60;4.45;;;;;;;17.55;67.54;99555.85;1603318;89;21204;-83
2023/04/25 07:47:25;;;;;;;17.62;4.78;;;;;;;17.61;65.89;99557.67;1629571;86;21253;-88
2023/04/25 07:50:30;;;;;;;11.88;4.55;;;;;;;17.64;66.38;99550.27;1624624;86;21846;-87
2023/04/25 07:53:37;;;;;;;12.07;4.33;;;;;;;17.82;65.79;99552.09;1644148;85;21229;-88
2023/04/25 07:56:45;;;;;;;22.77;4.83;;;;;;;17.84;63.18;99543.87;1604125;87;21786;-82
2023/04/25 07:59:52;;;;;;;15.50;4.65;;;;;;;17.82;63.57;99538.27;1627148;86;21801;-82
2023/04/25 08:02:59;;;;;;;8.53;4.03;;;;;;;17.94;64.08;99546.02;1631399;86;21257;-82
2023/04/25 08:06:05;;;;;;;9.05;3.35;;;;;;;18.06;61.81;99545.98;1643838;85;21737;-82
2023/04/25 08:09:20;;;;;;;9.55;3.65;;;;;;;18.11;61.17;99545.58;1609266;89;21181;-82
2023/04/25 08:12:26;;;;;;;11.95;3.90;;;;;;;18.13;59.66;99546.16;1642206;87;21824;-83
2023/04/25 08:15:31;;;;;;;20.35;4.28;;;;;;;18.13;60.82;99540.62;1646110;87;21163;-82
2023/04/25 08:18:36;;;;;;;9.68;3.45;;;;;;;18.23;60.22;99536.39;1646789;86;21205;-82
2023/04/25 08:21:41;;;;;;;9.68;4.47;;;;;;;18.33;59.52;99529.67;1604321;89;21711;-82
2023/04/25 08:24:49;;;;;;;13.62;3.80;;;;;;;18.30;60.95;99526.00;1624232;88;21208;-82
2023/04/25 08:27:57;;;;;;;11.38;3.92;;;;;;;18.29;59.50;99524.33;1642984;87;21239;-82
2023/04/25 08:31:03;;;;;;;10.25;4.15;;;;;;;18.39;59.27;99521.21;1641273;86;21170;-82
2023/04/25 08:34:11;;;;;;;11.38;3.90;;;;;;;18.28;58.64;99517.95;1644335;85;21178;-82
2023/04/25 08:37:19;;;;;;;12.03;3.80;;;;;;;18.16;58.14;99527.37;1605451;87;21243;-81
2023/04/25 08:40:30;;;;;;;7.92;3.67;;;;;;;18.05;58.14;99520.79;1630475;87;21183;-82
2023/04/25 08:43:37;;;;;;;13.18;4.42;;;;;;;17.98;57.73;99520.94;1655948;85;21223;-82
2023/04/25 08:46:42;;;;;;;10.90;3.47;;;;;;;17.97;58.69;99515.08;1657267;85;21775;-82
2023/04/25 08:49:53;;;;;;;20.32;4.78;;;;;;;18.06;60.36;99512.78;1621349;87;21212;-82
2023/04/25 08:52:58;;;;;;;14.25;4.37;;;;;;;18.26;58.34;99501.31;1637971;86;21289;-82
2023/04/25 08:56:03;;;;;;;7.95;3.87;;;;;;;18.38;57.58;99503.47;1655839;86;21191;-89
2023/04/25 08:59:10;;;;;;;15.25;4.17;;;;;;;18.51;57.69;99499.58;1652764;86;21253;-88
2023/04/25 09:02:17;;;;;;;12.50;3.70;;;;;;;18.50;56.46;99501.50;1617984;87;21236;-87
2023/04/25 09:05:28;;;;;;;9.63;4.50;;;;;;;18.50;56.87;99498.73;1622406;88;21181;-88
2023/04/25 09:08:33;;;;;;;9.58;3.80;;;;;;;18.53;56.44;99496.00;1633902;86;21229;-82
2023/04/25 09:11:41;;;;;;;11.90;4.47;;;;;;;18.55;56.06;99491.07;1655155;85;21234;-88
2023/04/25 09:14:48;;;;;;;6.75;4.28;;;;;;;18.50;55.76;99491.81;1658061;86;21165;-82
2023/04/25 09:18:05;;;;;;;11.55;5.17;;;;;;;18.63;55.73;99481.82;1623548;87;21185;-82
2023/04/25 09:21:16;;;;;;;10.13;4.60;;;;;;;18.89;55.31;99480.91;1637816;86;21790;-88
2023/04/25 09:24:22;;;;;;;17.77;5.67;;;;;;;19.19;55.62;99478.34;1658608;86;21243;-82
2023/04/25 09:27:29;;;;;;;14.85;5.50;;;;;;;19.32;53.81;99478.00;1651350;85;21255;-88
2023/04/25 09:30:42;;;;;;;15.35;6.47;;;;;;;19.42;54.15;99480.92;1637276;86;21282;-87
2023/04/25 09:33:49;;;;;;;17.57;7.15;;;;;;;19.46;54.01;99481.26;1657140;85;21448;-82
2023/04/25 09:36:57;;;;;;;22.77;7.58;;;;;;;19.52;52.53;99471.91;1618582;87;21333;-82
2023/04/25 09:40:19;;;;;;;22.52;7.90;;;;;;;19.59;53.00;99470.65;1650947;85;21225;-83
2023/04/25 09:43:28;;;;;;;15.43;6.62;;;;;;;19.58;53.39;99474.52;1668835;84;21242;-82
2023/04/25 09:46:36;;;;;;;14.15;4.80;;;;;;;19.46;53.60;99475.16;1697874;83;21804;-89
2023/04/25 09:49:49;;;;;;;11.05;4.42;;;;;;;19.25;54.56;99482.34;1694122;83;21171;-82
2023/04/25 09:52:56;;;;;;;15.15;4.83;;;;;;;18.85;56.31;99481.95;1694683;83;21183;-89
2023/04/25 09:56:14;;;;;;;12.55;4.62;;;;;;;18.46;56.75;99477.33;1675692;83;21736;-89
2023/04/25 09:59:18;;;;;;;10.60;4.80;;;;;;;18.17;57.91;99475.11;1692564;84;21188;-82
2023/04/25 10:02:30;;;;;;;35.30;6.22;;;;;;;18.04;58.13;99473.45;1692621;83;21199;-82
2023/04/25 10:05:40;;;;;;;12.30;5.10;;;;;;;17.99;58.13;99472.81;1657350;85;21294;-87
2023/04/25 10:08:45;;;;;;;10.10;4.67;;;;;;;17.91;58.82;99464.05;1689640;83;21199;-82
2023/04/25 10:11:51;;;;;;;16.00;5.95;;;;;;;17.87;59.09;99469.22;1693072;83;21613;-88
2023/04/25 10:14:57;;;;;;;18.77;6.22;;;;;;;18.00;59.05;99464.80;1690063;83;21729;-89
2023/04/25 10:18:03;;;;;;;19.60;6.20;;;;;;;18.01;59.01;99464.25;1654809;86;21209;-82
2023/04/25 10:21:10;;;;;;;17.20;6.50;;;;;;;18.16;57.52;99461.81;1625822;88;22194;-82
2023/04/25 10:24:15;;;;;;;17.15;6.20;;;;;;;18.31;57.40;99457.12;1640350;86;21204;-83
2023/04/25 10:27:21;;;;;;;16.85;6.58;;;;;;;18.32;55.83;99455.48;1631165;87;21777;-88
2023/04/25 10:30:26;;;;;;;17.25;6.47;;;;;;;18.41;55.70;99452.31;1711479;83;21709;-88
2023/04/25 10:33:46;;;;;;;20.23;7.42;;;;;;;18.46;54.60;99450.48;1682682;83;21215;-87
2023/04/25 10:37:08;;;;;;;17.60;7.37;;;;;;;18.51;55.11;99461.64;1659197;85;21201;-88
2023/04/25 10:40:20;;;;;;;17.95;7.05;;;;;;;18.65;54.21;99457.47;1705082;82;21251;-87
2023/04/25 10:43:43;;;;;;;21.40;6.20;;;;;;;18.87;54.13;99458.16;1694074;83;21219;-88
2023/04/25 10:46:48;;;;;;;11.18;5.03;;;;;;;18.95;54.42;99459.66;1696902;83;21243;-88
2023/04/25 10:49:54;;;;;;;12.82;4.83;;;;;;;18.80;55.04;99457.48;1696353;83;21698;-82
2023/04/25 10:52:59;;;;;;;12.98;5.60;;;;;;;18.57;54.75;99457.03;1662475;84;21222;-89
2023/04/25 10:56:04;;;;;;;11.35;4.97;;;;;;;18.33;59.50;99459.92;1650888;86;21169;-88
2023/04/25 10:59:23;;;;;;;16.95;5.53;;;;;;;18.03;62.54;99462.94;1683442;84;21195;-81
2023/04/25 11:02:28;;;;;;;14.00;4.55;;;;;;;17.80;64.08;99468.53;1658675;85;21189;-81
2023/04/25 11:05:42;;;;;;;9.25;4.67;;;;;;;17.70;64.55;99471.88;1693395;83;21159;-89
2023/04/25 11:08:57;;;;;;;17.50;6.37;;;;;;;17.56;64.78;99474.06;1649054;86;21585;-82
2023/04/25 11:12:05;;;;;;;16.37;5.75;;;;;;;17.44;66.12;99474.61;1691058;83;21243;-82
2023/04/25 11:15:12;;;;;;;14.05;5.30;;;;;;;17.39;66.70;99470.34;1660388;86;21755;-88
2023/04/25 11:18:18;;;;;;;21.07;4.72;;;;;;;17.26;66.64;99462.29;1645491;87;21209;-81
2023/04/25 11:21:26;;;;;;;11.95;4.90;;;;;;;17.28;66.04;99454.62;1691686;83;21216;-89
2023/04/25 11:24:31;;;;;;;10.03;4.30;;;;;;;17.26;66.49;99458.14;1633459;88;21187;-88
2023/04/25 11:27:36;;;;;;;15.08;5.28;;;;;;;17.30;66.47;99449.13;1691191;83;21215;-81
2023/04/25 11:30:42;;;;;;;16.07;4.67;;;;;;;17.40;64.84;99450.45;1674468;84;21201;-82
2023/04/25 11:33:47;;;;;;;14.90;5.30;;;;;;;17.46;62.88;99454.48;1688242;84;21773;-82
2023/04/25 11:36:53;;;;;;;10.58;5.65;;;;;;;17.55;62.93;99454.94;1695277;83;21235;-89
2023/04/25 11:39:58;;;;;;;9.38;4.55;;;;;;;17.60;61.91;99454.53;1684544;83;21278;-89
2023/04/25 11:43:04;;;;;;;13.28;4.92;;;;;;;17.65;61.31;99451.58;1668885;83;21199;-90
2023/04/25 11:46:14;;;;;;;13.72;5.30;;;;;;;17.67;59.42;99446.64;1672762;84;21772;-82
2023/04/25 11:49:14;;;;;;;14.73;4.65;;;;;;;17.62;59.44;99452.34;1682666;84;21187;-83
2023/04/25 11:52:07;;;;;;;16.42;4.75;;;;;;;17.72;59.75;99453.66;1660528;85;21184;-82
2023/04/25 11:54:52;;;;;;;14.28;5.95;;;;;;;17.79;58.23;99446.11;1696718;84;21842;-86
2023/04/25 11:57:48;;;;;;;15.10;4.58;;;;;;;17.86;57.89;99442.65;1647836;85;21224;-89
2023/04/25 12:00:34;;;;;;;8.65;4.60;;;;;;;17.96;58.50;99443.40;1695543;83;21198;-83
2023/04/25 12:03:40;;;;;;;;;;;;;;;18.02;59.33;99432.72;1692075;83;21271;-89
2023/04/25 12:06:47;;;;;;;10.60;4.17;;;;;;;18.00;61.17;99431.59;1693191;83;20201;-88
2023/04/25 12:09:58;;;;;;;31.10;5.75;;;;;;;17.93;63.62;99432.84;1694783;84;21764;-82
2023/04/25 12:13:04;;;;;;;10.50;5.37;;;;;;;17.91;63.13;99433.61;1653427;85;21196;-89
2023/04/25 12:16:10;;;;;;;21.85;5.03;;;;;;;17.90;61.09;99425.86;1687489;83;21803;-87
2023/04/25 12:19:15;;;;;;;16.67;5.20;;;;;;;18.07;59.05;99423.17;1642759;86;21156;-89
2023/04/25 12:22:31;;;;;;;13.93;5.78;;;;;;;18.11;59.05;99419.66;1658104;85;21215;-89
2023/04/25 12:25:50;;;;;;;10.93;4.67;;;;;;;18.12;58.56;99414.41;1648213;87;21892;-89
2023/04/25 12:28:55;;;;;;;9.73;4.25;;;;;;;18.09;59.11;99409.36;1687514;84;21167;-82
2023/04/25 12:32:05;;;;;;;14.87;4.10;;;;;;;18.12;57.41;99407.50;1691977;83;21226;-89
2023/04/25 12:35:12;;;;;;;19.45;4.20;;;;;;;18.11;55.53;99404.95;1667230;86;21248;-82
2023/04/25 12:38:18;;;;;;;11.90;4.10;;;;;;;18.24;54.19;99402.44;1703808;83;21247;-88
2023/04/25 12:41:24;;;;;;;11.53;5.10;;;;;;;18.38;57.72;99406.02;1655505;85;21208;-87
2023/04/25 12:44:29;;;;;;;17.20;5.62;;;;;;;18.37;59.22;99406.28;1639748;87;21680;-89
2023/04/25 12:47:35;;;;;;;15.28;5.85;;;;;;;18.32;60.72;99402.05;1663486;85;21229;-81
2023/04/25 12:50:42;;;;;;;16.42;6.53;;;;;;;18.38;62.22;99399.66;1664121;86;21205;-85
2023/04/25 12:53:48;;;;;;;13.90;5.08;;;;;;;18.52;62.30;99401.02;1670159;86;21172;-89
2023/04/25 12:56:53;;;;;;;11.30;4.95;;;;;;;18.49;62.02;99400.67;1669685;84;21208;-82
2023/04/25 12:59:58;;;;;;;13.38;5.20;;;;;;;18.47;62.40;99396.77;1663666;86;21237;-88
2023/04/25 13:03:04;;;;;;;11.33;4.17;;;;;;;18.58;62.14;99398.65;1678361;84;21227;-87
2023/04/25 13:06:10;;;;;;;9.20;4.55;;;;;;;18.70;60.96;99398.59;1669213;86;21209;-88
2023/04/25 13:09:16;;;;;;;10.13;3.62;;;;;;;18.76;59.28;99398.95;1664019;86;21532;-81
2023/04/25 13:12:21;;;;;;;15.53;4.40;;;;;;;18.70;58.47;99387.51;1681640;84;21240;-86
2023/04/25 13:15:26;;;;;;;10.28;3.20;;;;;;;18.69;58.89;99389.16;1681508;85;21208;-88
2023/04/25 13:18:31;;;;;;;32.13;5.00;;;;;;;18.62;57.87;99388.72;1682965;84;21216;-81
2023/04/25 13:21:39;;;;;;;9.33;3.77;;;;;;;18.58;57.02;99382.03;1682720;84;21264;-81
2023/04/25 13:24:43;;;;;;;15.00;3.80;;;;;;;18.50;57.06;99382.44;1682798;85;21793;-81
2023/04/25 13:27:48;;;;;;;14.13;3.65;;;;;;;18.48;56.65;99383.22;1682883;84;21753;-87
2023/04/25 13:30:53;;;;;;;8.55;3.27;;;;;;;18.45;56.36;99387.05;1683532;85;21269;-87
2023/04/25 13:34:00;;;;;;;6.83;3.37;;;;;;;18.43;55.89;99390.60;1668892;86;21224;-81
2023/04/25 13:37:06;;;;;;;10.38;3.12;;;;;;;18.35;55.96;99388.55;1663808;85;21779;-81
2023/04/25 13:40:16;;;;;;;7.47;3.12;;;;;;;18.31;56.41;99393.45;1683370;85;21215;-81
2023/04/25 13:43:24;;;;;;;8.45;3.00;;;;;;;18.29;56.70;99391.45;1678686;84;21243;-81
2023/04/25 13:46:31;;;;;;;16.40;3.50;;;;;;;18.21;56.26;99378.02;1671391;84;21176;-88
2023/04/25 13:49:38;;;;;;;4.72;2.83;;;;;;;18.16;56.09;99386.23;1675450;85;21244;-89
2023/04/25 13:52:45;;;;;;;33.25;5.50;;;;;;;18.04;56.01;99384.37;1696138;83;21250;-88
2023/04/25 13:55:52;;;;;;;15.90;4.10;;;;;;;17.94;56.17;99386.94;1696694;84;21187;-88
2023/04/25 13:59:01;;;;;;;24.95;3.70;;;;;;;17.86;56.55;99387.33;1677850;84;21215;-89
2023/04/25 14:02:08;;;;;;;22.48;4.10;;;;;;;17.90;57.73;99371.92;1697988;83;21223;-82
2023/04/25 14:05:13;;;;;;;13.65;3.65;;;;;;;17.83;57.30;99373.46;1698254;84;21329;-85
2023/04/25 14:08:19;;;;;;;16.87;3.52;;;;;;;17.80;57.18;99375.87;1700919;83;21207;-88
2023/04/25 14:11:23;;;;;;;8.25;2.62;;;;;;;17.79;57.02;99380.56;1702933;83;21179;-87
2023/04/25 14:14:29;;;;;;;7.58;3.50;;;;;;;17.68;56.97;99376.41;1702914;83;21152;-81
2023/04/25 14:17:35;;;;;;;9.20;3.50;;;;;;;17.60;56.55;99369.36;1703160;82;21183;-81
2023/04/25 14:20:40;;;;;;;7.80;3.00;;;;;;;17.49;57.10;99366.90;1670927;86;21290;-82
2023/04/25 14:23:46;;;;;;;13.28;3.98;;;;;;;17.39;58.05;99370.83;1670296;86;21168;-83
2023/04/25 14:26:53;;;;;;;12.78;3.67;;;;;;;17.30;57.84;99371.75;1670335;84;21223;-82
2023/04/25 14:29:58;;;;;;;13.50;3.58;;;;;;;17.26;58.65;99369.71;1669848;86;21203;-82